createdAt,value
2024-03-05T00:00:26.567Z,5.51
2024-03-05T00:02:52.964Z,5.43
2024-03-05T00:05:19.767Z,5.32
2024-03-05T00:07:46.802Z,5.21
2024-03-05T00:10:13.991Z,5.12
2024-03-05T00:12:40.766Z,5.04
2024-03-05T00:15:07.742Z,4.89
2024-03-05T00:17:34.171Z,4.81
2024-03-05T00:20:00.710Z,4.73
2024-03-05T00:22:27.201Z,4.67
2024-03-05T00:24:53.698Z,4.64
2024-03-05T00:27:20.211Z,4.57
2024-03-05T00:29:46.836Z,4.51
2024-03-05T00:32:13.262Z,4.40
2024-03-05T00:34:39.836Z,4.32
2024-03-05T00:37:07.074Z,4.23
2024-03-05T00:39:33.692Z,4.19
2024-03-05T00:42:00.086Z,4.23
2024-03-05T00:44:27.690Z,4.18
2024-03-05T00:46:54.551Z,4.21
2024-03-05T00:49:21.686Z,4.24
2024-03-05T00:51:48.653Z,4.26
2024-03-05T00:54:15.392Z,4.22
2024-03-05T00:56:41.993Z,4.22
2024-03-05T00:59:08.420Z,4.25
2024-03-05T01:01:35.784Z,4.40
2024-03-05T01:04:02.347Z,4.29
2024-03-05T01:06:28.884Z,4.25
2024-03-05T01:08:55.315Z,4.21
2024-03-05T01:11:21.756Z,4.24
2024-03-05T01:13:48.269Z,4.31
2024-03-05T01:16:14.727Z,4.40
2024-03-05T01:18:42.309Z,4.44
2024-03-05T01:21:08.819Z,4.47
2024-03-05T01:23:35.316Z,4.48
2024-03-05T01:26:02.070Z,4.46
2024-03-05T01:28:32.186Z,4.49
2024-03-05T01:31:00.759Z,4.50
2024-03-05T01:33:27.587Z,4.45
2024-03-05T01:35:54.218Z,4.47
2024-03-05T01:38:21.503Z,4.49
2024-03-05T01:40:48.114Z,4.51
2024-03-05T01:43:15.931Z,4.53
2024-03-05T01:45:43.678Z,4.57
2024-03-05T01:48:12.265Z,4.61
2024-03-05T01:50:39.013Z,4.58
2024-03-05T01:53:13.379Z,4.60
2024-03-05T01:55:40.361Z,4.61
2024-03-05T01:58:08.925Z,4.66
2024-03-05T02:00:37.657Z,4.67
2024-03-05T02:03:05.243Z,4.59
2024-03-05T02:05:33.742Z,4.62
2024-03-05T02:08:00.248Z,4.65
2024-03-05T02:10:28.012Z,4.64
2024-03-05T02:12:54.442Z,4.68
2024-03-05T02:15:22.026Z,4.72
2024-03-05T02:17:48.759Z,4.74
2024-03-05T02:20:15.324Z,4.78
2024-03-05T02:22:42.759Z,4.92
2024-03-05T02:25:10.664Z,4.84
2024-03-05T02:27:38.062Z,4.83
2024-03-05T02:30:11.293Z,4.86
2024-03-05T02:32:41.885Z,4.87
2024-03-05T02:35:09.646Z,4.86
2024-03-05T02:37:40.029Z,4.88
2024-03-05T02:40:11.094Z,4.81
2024-03-05T02:42:38.034Z,4.71
2024-03-05T02:45:08.460Z,4.72
2024-03-05T02:47:43.561Z,4.67
2024-03-05T02:50:11.549Z,4.63
2024-03-05T02:52:39.957Z,4.62
2024-03-05T02:55:10.602Z,4.53
2024-03-05T02:57:42.216Z,4.46
2024-03-05T03:00:10.105Z,4.41
2024-03-05T03:02:36.768Z,4.35
2024-03-05T03:05:03.921Z,4.33
2024-03-05T03:07:30.380Z,4.29
2024-03-05T03:09:56.885Z,4.26
2024-03-05T03:12:23.353Z,4.22
2024-03-05T03:14:49.806Z,4.19
2024-03-05T03:17:16.494Z,4.20
2024-03-05T03:19:44.040Z,4.24
2024-03-05T03:22:10.612Z,4.28
2024-03-05T03:24:37.132Z,4.31
2024-03-05T03:27:03.701Z,4.35
2024-03-05T03:29:30.096Z,4.38
2024-03-05T03:31:57.214Z,4.43
2024-03-05T03:34:23.894Z,4.47
2024-03-05T03:36:50.441Z,4.48
2024-03-05T03:39:24.233Z,4.48
2024-03-05T03:41:55.847Z,4.52
2024-03-05T03:44:23.282Z,4.56
2024-03-05T03:46:50.547Z,4.58
2024-03-05T03:49:21.564Z,4.62
2024-03-05T03:51:48.616Z,4.66
2024-03-05T03:54:15.049Z,4.72
2024-03-05T03:56:41.825Z,4.76
2024-03-05T03:59:08.851Z,4.77
2024-03-05T04:01:37.367Z,4.78
2024-03-05T04:04:04.067Z,4.81
2024-03-05T04:06:31.853Z,4.84
2024-03-05T04:08:58.368Z,4.90
2024-03-05T04:11:24.842Z,4.91
2024-03-05T04:13:51.268Z,4.92
2024-03-05T04:16:17.690Z,4.95
2024-03-05T04:18:46.739Z,4.98
2024-03-05T04:21:13.727Z,5.01
2024-03-05T04:23:40.653Z,5.04
2024-03-05T04:26:14.261Z,5.05
2024-03-05T04:28:50.098Z,5.07
2024-03-05T04:31:18.765Z,5.11
2024-03-05T04:33:47.993Z,5.13
2024-03-05T04:36:17.461Z,5.15
2024-03-05T04:38:44.715Z,5.15
2024-03-05T04:41:12.263Z,5.17
2024-03-05T04:43:44.564Z,5.18
2024-03-05T04:46:14.330Z,5.24
2024-03-05T04:48:40.767Z,5.21
2024-03-05T04:51:11.103Z,5.21
2024-03-05T04:53:37.813Z,5.24
2024-03-05T04:56:04.602Z,5.28
2024-03-05T04:58:31.285Z,5.32
2024-03-05T05:00:57.777Z,5.37
2024-03-05T05:03:24.638Z,5.37
2024-03-05T05:05:51.232Z,5.38
2024-03-05T05:08:20.270Z,5.38
2024-03-05T05:10:48.876Z,5.41
2024-03-05T05:13:15.407Z,5.44
2024-03-05T05:15:41.915Z,5.45
2024-03-05T05:18:08.579Z,5.70
2024-03-05T05:20:35.068Z,5.58
2024-03-05T05:23:01.500Z,5.51
2024-03-05T05:25:29.363Z,5.50
2024-03-05T05:27:55.824Z,5.51
2024-03-05T05:30:23.801Z,5.51
2024-03-05T05:32:50.559Z,5.50
2024-03-05T05:35:17.930Z,5.50
2024-03-05T05:37:45.582Z,5.49
2024-03-05T05:40:12.493Z,5.48
2024-03-05T05:42:39.491Z,5.48
2024-03-05T05:45:15.805Z,5.47
2024-03-05T05:47:50.155Z,5.46
2024-03-05T05:50:19.851Z,5.49
2024-03-05T05:52:49.539Z,5.45
2024-03-05T05:55:21.540Z,5.46
2024-03-05T05:57:49.078Z,5.44
2024-03-05T06:00:35.871Z,5.46
2024-03-05T06:03:05.049Z,5.48
2024-03-05T06:05:36.445Z,5.50
2024-03-05T06:08:04.965Z,5.50
2024-03-05T06:10:31.897Z,5.47
2024-03-05T06:12:58.418Z,5.48
2024-03-05T06:15:25.123Z,5.48
2024-03-05T06:17:52.813Z,5.48
2024-03-05T06:20:19.456Z,5.50
2024-03-05T06:22:46.612Z,5.51
2024-03-05T06:25:17.384Z,5.52
2024-03-05T06:27:43.912Z,5.52
2024-03-05T06:30:16.418Z,5.56
2024-03-05T06:32:47.603Z,5.56
2024-03-05T06:35:19.975Z,5.57
2024-03-05T06:37:47.946Z,5.57
2024-03-05T06:40:17.498Z,5.59
2024-03-05T06:42:52.885Z,5.66
2024-03-05T06:45:28.274Z,5.70
2024-03-05T06:48:11.423Z,5.74
2024-03-05T06:50:43.472Z,5.79
2024-03-05T06:53:30.583Z,5.77
2024-03-05T06:56:16.486Z,5.83
2024-03-05T06:58:45.874Z,5.82
2024-03-05T07:01:14.553Z,5.86
2024-03-05T07:03:43.303Z,5.89
2024-03-05T07:06:13.994Z,5.91
2024-03-05T07:08:43.401Z,5.95
2024-03-05T07:11:16.990Z,6.05
2024-03-05T07:13:48.190Z,6.10
2024-03-05T07:16:17.611Z,6.13
2024-03-05T07:18:46.019Z,6.19
2024-03-05T07:21:12.468Z,6.20
2024-03-05T07:23:41.463Z,6.19
2024-03-05T07:26:08.276Z,6.19
2024-03-05T07:28:35.063Z,6.18
2024-03-05T07:31:03.287Z,6.20
2024-03-05T07:33:31.679Z,6.42
2024-03-05T07:35:58.217Z,6.44
2024-03-05T07:38:24.622Z,6.32
2024-03-05T07:40:51.555Z,6.55
2024-03-05T07:43:18.095Z,6.34
2024-03-05T07:45:45.607Z,6.29
2024-03-05T07:48:13.565Z,6.31
2024-03-05T07:50:40.429Z,6.34
2024-03-05T07:53:07.050Z,6.34
2024-03-05T07:58:07.575Z,6.40
2024-03-05T08:00:34.607Z,6.45
2024-03-05T08:03:01.073Z,6.37
2024-03-05T08:05:27.493Z,6.39
2024-03-05T08:08:03.341Z,6.45
2024-03-05T08:10:30.180Z,6.48
2024-03-05T08:12:57.146Z,6.51
2024-03-05T08:15:28.024Z,6.50
2024-03-05T08:17:57.269Z,6.55
2024-03-05T08:20:28.078Z,6.53
2024-03-05T08:22:56.517Z,6.58
2024-03-05T08:25:24.075Z,6.63
2024-03-05T08:27:59.281Z,6.62
2024-03-05T08:30:30.862Z,6.60
2024-03-05T08:32:57.681Z,6.62
2024-03-05T08:35:26.661Z,6.70
2024-03-05T08:37:53.135Z,6.76
2024-03-05T08:40:21.845Z,6.84
2024-03-05T08:42:50.330Z,6.85
2024-03-05T08:45:23.551Z,6.84
2024-03-05T08:47:54.458Z,6.88
2024-03-05T08:50:22.250Z,6.84
2024-03-05T08:52:49.445Z,6.89
2024-03-05T08:55:18.636Z,6.93
2024-03-05T08:57:45.462Z,6.99
2024-03-05T09:00:31.264Z,7.09
2024-03-05T09:03:04.620Z,7.01
2024-03-05T09:05:32.743Z,7.03
2024-03-05T09:07:59.309Z,7.04
2024-03-05T09:10:25.827Z,7.06
2024-03-05T09:12:52.380Z,7.04
2024-03-05T09:15:18.942Z,7.11
2024-03-05T09:17:45.397Z,7.19
2024-03-05T09:20:18.536Z,7.22
2024-03-05T09:22:46.740Z,7.13
2024-03-05T09:25:15.423Z,7.11
2024-03-05T09:27:43.393Z,7.11
2024-03-05T09:30:14.970Z,7.16
2024-03-05T09:32:42.792Z,7.10
2024-03-05T09:35:10.849Z,7.24
2024-03-05T09:37:37.898Z,7.28
2024-03-05T09:40:07.751Z,7.33
2024-03-05T09:42:38.091Z,7.32
2024-03-05T09:45:07.645Z,7.29
2024-03-05T09:47:37.386Z,7.29
2024-03-05T09:50:05.816Z,7.29
2024-03-05T09:52:34.002Z,7.33
2024-03-05T09:55:01.671Z,7.33
2024-03-05T09:57:30.110Z,7.31
2024-03-05T09:59:56.987Z,7.39
2024-03-05T10:02:26.582Z,7.37
2024-03-05T10:05:00.374Z,7.32
2024-03-05T10:07:28.376Z,7.35
2024-03-05T10:10:05.074Z,7.36
2024-03-05T10:12:31.506Z,7.45
2024-03-05T10:15:11.740Z,7.46
2024-03-05T10:17:45.732Z,7.44
2024-03-05T10:20:33.110Z,7.65
2024-03-05T10:23:02.866Z,7.70
2024-03-05T10:25:31.263Z,7.79
2024-03-05T10:27:57.893Z,7.77
2024-03-05T10:30:37.663Z,7.92
2024-03-05T10:33:11.489Z,7.89
2024-03-05T10:35:39.150Z,8.05
2024-03-05T10:38:09.816Z,8.07
2024-03-05T10:40:37.850Z,8.12
2024-03-05T10:43:06.264Z,8.23
2024-03-05T10:45:42.215Z,8.31
2024-03-05T10:48:10.851Z,8.43
2024-03-05T10:50:44.853Z,8.45
2024-03-05T10:53:12.790Z,8.45
2024-03-05T10:55:40.364Z,8.42
2024-03-05T10:58:15.371Z,8.50
2024-03-05T11:00:47.476Z,8.46
2024-03-05T11:03:18.141Z,8.49
2024-03-05T11:05:53.249Z,8.37
2024-03-05T11:08:22.367Z,8.30
2024-03-05T11:10:54.672Z,8.33
2024-03-05T11:13:22.489Z,8.25
2024-03-05T11:15:50.445Z,8.23
2024-03-05T11:18:34.121Z,8.18
2024-03-05T11:21:11.707Z,8.16
2024-03-05T11:23:55.251Z,8.10
2024-03-05T11:26:27.633Z,8.10
2024-03-05T11:29:17.918Z,7.99
2024-03-05T11:31:48.098Z,7.90
2024-03-05T11:34:14.778Z,7.98
2024-03-05T11:36:41.362Z,8.02
2024-03-05T11:39:10.575Z,7.91
2024-03-05T11:41:39.014Z,7.89
2024-03-05T11:44:06.067Z,7.93
2024-03-05T11:46:44.392Z,7.87
2024-03-05T11:49:11.796Z,7.86
2024-03-05T11:51:40.622Z,7.88
2024-03-05T11:54:09.649Z,7.89
2024-03-05T11:56:37.590Z,7.98
2024-03-05T11:59:04.394Z,8.04
2024-03-05T12:01:31.454Z,8.01
2024-03-05T12:04:08.424Z,8.16
2024-03-05T12:06:42.323Z,8.06
2024-03-05T12:09:22.310Z,8.17
2024-03-05T12:12:04.983Z,8.07
2024-03-05T12:14:35.776Z,8.13
2024-03-05T12:17:07.957Z,8.10
2024-03-05T12:19:35.746Z,8.07
2024-03-05T12:22:02.573Z,8.15
2024-03-05T12:24:29.737Z,8.11
2024-03-05T12:26:57.376Z,8.10
2024-03-05T12:29:42.598Z,8.13
2024-03-05T12:32:12.284Z,8.19
2024-03-05T12:34:43.973Z,8.23
2024-03-05T12:37:11.888Z,8.27
2024-03-05T12:39:41.100Z,8.27
2024-03-05T12:42:10.806Z,8.34
2024-03-05T12:44:37.315Z,8.35
2024-03-05T12:47:12.095Z,8.48
2024-03-05T12:49:45.357Z,8.51
2024-03-05T12:52:23.859Z,8.38
2024-03-05T12:55:10.866Z,8.35
2024-03-05T12:57:37.593Z,8.39
2024-03-05T13:00:13.650Z,8.38
2024-03-05T13:02:40.905Z,8.31
2024-03-05T13:05:09.212Z,8.35
2024-03-05T13:07:36.642Z,8.36
2024-03-05T13:10:12.052Z,8.37
2024-03-05T13:12:39.788Z,8.31
2024-03-05T13:15:07.159Z,8.33
2024-03-05T13:17:33.600Z,8.38
2024-03-05T13:20:00.030Z,8.31
2024-03-05T13:22:26.463Z,8.26
2024-03-05T13:24:55.730Z,8.26
2024-03-05T13:27:22.605Z,8.33
2024-03-05T13:29:51.441Z,8.38
2024-03-05T13:32:20.418Z,8.36
2024-03-05T13:34:46.813Z,8.33
2024-03-05T13:37:13.314Z,8.33
2024-03-05T13:39:45.480Z,8.29
2024-03-05T13:42:11.948Z,8.27
2024-03-05T13:44:39.229Z,8.41
2024-03-05T13:47:06.196Z,8.38
2024-03-05T13:49:32.609Z,8.37
2024-03-05T13:51:59.079Z,8.46
2024-03-05T13:54:25.528Z,8.52
2024-03-05T13:56:52.097Z,8.50
2024-03-05T13:59:18.658Z,8.47
2024-03-05T14:01:45.108Z,8.50
2024-03-05T14:04:11.645Z,8.56
2024-03-05T14:06:42.023Z,8.51
2024-03-05T14:09:11.924Z,8.48
2024-03-05T14:11:41.092Z,8.36
2024-03-05T14:14:07.850Z,8.53
2024-03-05T14:16:39.880Z,8.69
2024-03-05T14:19:06.701Z,8.56
2024-03-05T14:21:33.255Z,8.51
2024-03-05T14:23:59.656Z,8.57
2024-03-05T14:26:26.331Z,8.80
2024-03-05T14:28:53.184Z,8.68
2024-03-05T14:31:20.404Z,8.71
2024-03-05T14:33:48.056Z,8.79
2024-03-05T14:36:15.399Z,8.68
2024-03-05T14:38:43.347Z,8.50
2024-03-05T14:41:10.925Z,8.73
2024-03-05T14:43:40.350Z,8.63
2024-03-05T14:46:07.803Z,8.58
2024-03-05T14:48:34.594Z,8.62
2024-03-05T14:51:01.424Z,8.67
2024-03-05T14:53:28.485Z,8.77
2024-03-05T14:55:55.155Z,8.85
2024-03-05T14:58:23.815Z,8.74
2024-03-05T15:00:50.433Z,8.64
2024-03-05T15:03:18.806Z,8.55
2024-03-05T15:05:45.920Z,8.58
2024-03-05T15:08:12.389Z,8.49
2024-03-05T15:10:39.285Z,8.51
2024-03-05T15:13:07.555Z,8.55
2024-03-05T15:15:33.998Z,8.39
2024-03-05T15:18:01.836Z,8.26
2024-03-05T15:20:28.442Z,8.17
2024-03-05T15:22:54.908Z,8.14
2024-03-05T15:25:22.104Z,8.10
2024-03-05T15:27:57.126Z,8.02
2024-03-05T15:30:32.791Z,7.95
2024-03-05T15:33:00.229Z,8.03
2024-03-05T15:35:29.293Z,8.00
2024-03-05T15:37:59.849Z,8.04
2024-03-05T15:40:27.404Z,8.07
2024-03-05T15:42:56.382Z,8.07
2024-03-05T15:45:26.329Z,8.02
2024-03-05T15:47:55.628Z,8.01
2024-03-05T15:50:24.018Z,7.95
2024-03-05T15:52:57.582Z,7.96
2024-03-05T15:55:26.255Z,8.00
2024-03-05T15:58:02.538Z,8.06
2024-03-05T16:00:38.473Z,8.19
2024-03-05T16:03:06.221Z,8.19
2024-03-05T16:05:52.431Z,8.14
2024-03-05T16:08:27.370Z,7.99
2024-03-05T16:10:55.527Z,7.85
2024-03-05T16:13:23.200Z,7.80
2024-03-05T16:15:50.485Z,7.89
2024-03-05T16:18:17.227Z,7.81
2024-03-05T16:20:44.344Z,7.78
2024-03-05T16:23:11.592Z,7.76
2024-03-05T16:25:43.047Z,7.86
2024-03-05T16:28:10.839Z,7.93
2024-03-05T16:30:38.370Z,7.98
2024-03-05T16:33:05.899Z,7.99
2024-03-05T16:35:36.767Z,7.96
2024-03-05T16:38:07.870Z,7.95
2024-03-05T16:40:38.658Z,7.93
2024-03-05T16:43:06.806Z,7.96
2024-03-05T16:45:34.740Z,8.05
2024-03-05T16:48:01.725Z,8.17
2024-03-05T16:50:30.395Z,8.00
2024-03-05T16:52:58.771Z,7.73
2024-03-05T16:55:27.191Z,7.59
2024-03-05T16:57:55.670Z,7.54
2024-03-05T17:00:32.413Z,7.64
2024-03-05T17:03:12.545Z,7.68
2024-03-05T17:05:41.614Z,7.64
2024-03-05T17:08:14.989Z,7.63
2024-03-05T17:10:43.825Z,7.66
2024-03-05T17:13:18.490Z,7.70
2024-03-05T17:15:52.706Z,7.51
2024-03-05T17:18:20.419Z,7.49
2024-03-05T17:20:46.878Z,7.45
2024-03-05T17:23:20.632Z,7.41
2024-03-05T17:25:48.800Z,7.37
2024-03-05T17:28:15.365Z,7.32
2024-03-05T17:30:44.915Z,7.36
2024-03-05T17:33:14.965Z,7.35
2024-03-05T17:35:42.482Z,7.35
2024-03-05T17:38:11.217Z,7.33
2024-03-05T17:40:38.287Z,7.33
2024-03-05T17:43:05.200Z,7.36
2024-03-05T17:45:32.745Z,7.35
2024-03-05T17:48:02.274Z,7.35
2024-03-05T17:50:29.056Z,7.33
2024-03-05T17:52:56.201Z,7.30
2024-03-05T17:55:22.708Z,7.27
2024-03-05T17:57:52.025Z,7.28
2024-03-05T18:00:28.961Z,7.26
2024-03-05T18:02:57.421Z,7.23
2024-03-05T18:05:28.851Z,7.17
2024-03-05T18:07:55.602Z,7.13
2024-03-05T18:10:23.957Z,7.17
2024-03-05T18:12:51.213Z,7.17
2024-03-05T18:15:20.649Z,7.20
2024-03-05T18:17:51.762Z,7.17
2024-03-05T18:20:20.822Z,7.13
2024-03-05T18:22:48.625Z,7.12
2024-03-05T18:25:17.809Z,7.12
2024-03-05T18:27:58.029Z,7.11
2024-03-05T18:30:42.970Z,7.10
2024-03-05T18:33:12.116Z,7.07
2024-03-05T18:35:41.034Z,7.07
2024-03-05T18:38:20.424Z,7.08
2024-03-05T18:40:54.512Z,7.06
2024-03-05T18:43:22.271Z,7.04
2024-03-05T18:45:50.463Z,7.01
2024-03-05T18:48:17.038Z,7.01
2024-03-05T18:50:44.355Z,6.98
2024-03-05T18:53:12.279Z,6.88
2024-03-05T18:55:38.737Z,6.83
2024-03-05T18:58:07.871Z,6.84
2024-03-05T19:00:35.172Z,6.85
2024-03-05T19:03:02.054Z,6.83
2024-03-05T19:05:28.743Z,6.80
2024-03-05T19:07:55.260Z,6.76
2024-03-05T19:10:21.809Z,6.74
2024-03-05T19:12:48.824Z,6.73
2024-03-05T19:15:18.437Z,6.71
2024-03-05T19:17:48.461Z,6.70
2024-03-05T19:20:15.474Z,6.69
2024-03-05T19:22:42.478Z,6.63
2024-03-05T19:25:11.801Z,6.62
2024-03-05T19:27:39.681Z,6.59
2024-03-05T19:30:11.416Z,6.60
2024-03-05T19:32:41.556Z,6.59
2024-03-05T19:35:12.640Z,6.60
2024-03-05T19:37:50.763Z,6.60
2024-03-05T19:40:18.708Z,6.59
2024-03-05T19:42:57.172Z,6.56
2024-03-05T19:45:24.884Z,6.54
2024-03-05T19:47:51.898Z,6.55
2024-03-05T19:50:19.139Z,6.55
2024-03-05T19:52:49.165Z,6.52
2024-03-05T19:55:16.089Z,6.52
2024-03-05T19:57:43.949Z,6.52
2024-03-05T20:00:24.041Z,6.49
2024-03-05T20:02:50.773Z,6.43
2024-03-05T20:05:18.037Z,6.49
2024-03-05T20:07:45.387Z,6.48
2024-03-05T20:10:12.325Z,6.72
2024-03-05T20:12:39.254Z,6.60
2024-03-05T20:15:09.928Z,6.51
2024-03-05T20:17:39.508Z,6.45
2024-03-05T20:20:06.801Z,6.41
2024-03-05T20:22:35.288Z,6.29
2024-03-05T20:25:01.704Z,6.31
2024-03-05T20:27:29.090Z,6.30
2024-03-05T20:29:56.627Z,6.30
2024-03-05T20:32:25.565Z,6.31
2024-03-05T20:34:52.172Z,6.35
2024-03-05T20:37:21.066Z,6.32
2024-03-05T20:39:50.745Z,6.31
2024-03-05T20:42:17.279Z,6.25
2024-03-05T20:44:43.719Z,6.39
2024-03-05T20:47:10.224Z,6.19
2024-03-05T20:49:36.764Z,6.17
2024-03-05T20:52:03.273Z,6.16
2024-03-05T20:54:29.628Z,6.17
2024-03-05T20:56:56.998Z,6.18
2024-03-05T20:59:26.220Z,6.19
2024-03-05T21:01:54.139Z,6.19
2024-03-05T21:04:20.616Z,6.18
2024-03-05T21:06:47.148Z,6.18
2024-03-05T21:09:14.404Z,6.19
2024-03-05T21:11:41.072Z,6.19
2024-03-05T21:14:08.425Z,6.20
2024-03-05T21:16:35.008Z,6.14
2024-03-05T21:19:03.922Z,6.14
2024-03-05T21:21:34.782Z,6.14
2024-03-05T21:24:01.930Z,6.14
2024-03-05T21:29:01.115Z,6.35
2024-03-05T21:31:29.893Z,6.29
2024-03-05T21:33:56.399Z,6.28
2024-03-05T21:36:23.578Z,6.18
2024-03-05T21:38:50.050Z,6.12
2024-03-05T21:41:16.622Z,6.10
2024-03-05T21:43:43.108Z,6.10
2024-03-05T21:46:09.605Z,6.13
2024-03-05T21:48:36.079Z,6.08
2024-03-05T21:51:09.202Z,6.05
2024-03-05T21:53:38.764Z,6.07
2024-03-05T21:56:05.497Z,6.06
2024-03-05T21:58:31.889Z,6.06
2024-03-05T22:00:58.270Z,6.07
2024-03-05T22:03:24.677Z,6.07
2024-03-05T22:05:51.046Z,6.08
2024-03-05T22:08:17.495Z,6.06
2024-03-05T22:10:43.995Z,6.05
2024-03-05T22:13:10.428Z,6.02
2024-03-05T22:15:36.810Z,6.03
2024-03-05T22:18:04.954Z,6.00
2024-03-05T22:20:31.379Z,6.01
2024-03-05T22:22:57.877Z,5.98
2024-03-05T22:25:24.551Z,5.94
2024-03-05T22:27:51.844Z,5.93
2024-03-05T22:30:18.227Z,5.94
2024-03-05T22:32:44.725Z,5.90
2024-03-05T22:35:11.425Z,5.91
2024-03-05T22:37:41.561Z,5.89
2024-03-05T22:40:09.674Z,5.84
2024-03-05T22:42:36.163Z,5.78
2024-03-05T22:45:03.941Z,5.66
2024-03-05T22:47:30.392Z,5.57
2024-03-05T22:49:56.879Z,5.49
2024-03-05T22:52:23.289Z,5.50
2024-03-05T22:54:49.816Z,5.48
2024-03-05T22:57:16.270Z,5.42
2024-03-05T22:59:42.677Z,5.44
2024-03-05T23:02:09.235Z,5.42
2024-03-05T23:04:35.781Z,5.41
2024-03-05T23:07:02.249Z,5.43
2024-03-05T23:09:28.808Z,5.38
2024-03-05T23:11:55.385Z,5.39
2024-03-05T23:14:21.833Z,5.38
2024-03-05T23:16:49.736Z,5.39
2024-03-05T23:19:16.350Z,5.38
2024-03-05T23:21:42.766Z,5.40
2024-03-05T23:24:10.189Z,5.35
2024-03-05T23:26:36.713Z,5.34
2024-03-05T23:29:03.224Z,5.33
2024-03-05T23:31:29.868Z,5.32
2024-03-05T23:33:56.451Z,5.31
2024-03-05T23:36:22.903Z,5.30
2024-03-05T23:38:49.298Z,5.31
2024-03-05T23:41:24.760Z,5.31
2024-03-05T23:43:58.331Z,5.27
2024-03-05T23:46:24.803Z,5.26
2024-03-05T23:48:51.199Z,5.28
2024-03-05T23:51:17.692Z,5.22
2024-03-05T23:53:44.143Z,5.21
2024-03-05T23:56:10.704Z,5.20
2024-03-05T23:58:38.676Z,5.19
